createdAt,value
2023-12-13T00:01:57.589Z,6.01
2023-12-13T00:04:59.448Z,5.85
2023-12-13T00:08:01.901Z,5.80
2023-12-13T00:11:04.472Z,5.86
2023-12-13T00:14:07.262Z,5.63
2023-12-13T00:17:12.091Z,5.92
2023-12-13T00:20:14.511Z,5.77
2023-12-13T00:23:16.352Z,5.83
2023-12-13T00:26:19.777Z,5.52
2023-12-13T00:29:21.631Z,5.86
2023-12-13T00:32:24.778Z,5.72
2023-12-13T00:35:27.366Z,5.74
2023-12-13T00:38:29.327Z,5.70
2023-12-13T00:41:31.441Z,4.96
2023-12-13T00:44:33.330Z,4.99
2023-12-13T00:47:37.027Z,5.04
2023-12-13T00:50:39.423Z,5.18
2023-12-13T00:53:41.310Z,5.55
2023-12-13T00:56:43.466Z,5.00
2023-12-13T00:59:45.423Z,5.21
2023-12-13T01:02:48.955Z,5.21
2023-12-13T01:05:50.976Z,5.03
2023-12-13T01:08:52.897Z,5.55
2023-12-13T01:11:55.451Z,5.50
2023-12-13T01:14:57.414Z,5.61
2023-12-13T01:18:00.841Z,5.03
2023-12-13T01:21:02.878Z,5.05
2023-12-13T01:24:05.756Z,5.45
2023-12-13T01:27:07.739Z,5.16
2023-12-13T01:30:10.911Z,4.82
2023-12-13T01:33:14.300Z,5.48
2023-12-13T01:36:16.574Z,4.76
2023-12-13T01:39:19.806Z,4.70
2023-12-13T01:42:21.690Z,4.70
2023-12-13T01:45:23.557Z,4.95
2023-12-13T01:48:28.457Z,4.99
2023-12-13T01:51:30.464Z,5.46
2023-12-13T01:54:33.936Z,5.64
2023-12-13T01:57:37.479Z,5.32
2023-12-13T02:00:42.996Z,5.05
2023-12-13T02:03:47.840Z,5.40
2023-12-13T02:06:49.716Z,5.54
2023-12-13T02:09:54.080Z,5.60
2023-12-13T02:12:56.103Z,5.77
2023-12-13T02:15:58.377Z,6.04
2023-12-13T02:19:01.833Z,6.20
2023-12-13T02:22:07.960Z,6.25
2023-12-13T02:25:15.780Z,5.88
2023-12-13T02:28:18.098Z,6.35
2023-12-13T02:31:21.217Z,6.29
2023-12-13T02:34:23.057Z,6.29
2023-12-13T02:37:26.298Z,6.23
2023-12-13T02:40:28.280Z,6.34
2023-12-13T02:43:32.089Z,6.37
2023-12-13T02:46:35.199Z,6.40
2023-12-13T02:49:37.110Z,6.44
2023-12-13T02:52:41.146Z,6.35
2023-12-13T02:55:44.103Z,6.35
2023-12-13T02:58:46.021Z,6.36
2023-12-13T03:01:48.037Z,6.36
2023-12-13T03:04:50.020Z,6.31
2023-12-13T03:07:53.581Z,6.37
2023-12-13T03:10:56.098Z,6.35
2023-12-13T03:13:58.047Z,6.13
2023-12-13T03:17:00.044Z,6.36
2023-12-13T03:20:02.141Z,6.45
2023-12-13T03:23:08.658Z,6.39
2023-12-13T03:26:10.602Z,6.40
2023-12-13T03:29:13.166Z,6.35
2023-12-13T03:32:14.980Z,6.31
2023-12-13T03:35:16.956Z,6.37
2023-12-13T03:38:20.285Z,6.31
2023-12-13T03:41:22.106Z,6.36
2023-12-13T03:44:25.019Z,6.24
2023-12-13T03:47:26.992Z,6.23
2023-12-13T03:50:29.901Z,6.25
2023-12-13T03:53:33.331Z,6.27
2023-12-13T03:56:35.914Z,6.32
2023-12-13T03:59:37.747Z,6.20
2023-12-13T04:02:39.854Z,6.26
2023-12-13T04:05:41.696Z,6.32
2023-12-13T04:08:44.963Z,6.36
2023-12-13T04:11:46.893Z,6.34
2023-12-13T04:14:48.868Z,6.35
2023-12-13T04:17:51.018Z,6.36
2023-12-13T04:20:52.915Z,6.35
2023-12-13T04:23:56.190Z,6.33
2023-12-13T04:26:58.033Z,6.37
2023-12-13T04:30:00.993Z,6.26
2023-12-13T04:33:03.115Z,6.29
2023-12-13T04:36:05.815Z,6.32
2023-12-13T04:39:09.957Z,6.31
2023-12-13T04:42:11.838Z,6.32
2023-12-13T04:45:14.032Z,6.20
2023-12-13T04:48:15.966Z,6.34
2023-12-13T04:51:18.981Z,6.40
2023-12-13T04:54:22.199Z,6.40
2023-12-13T04:57:24.771Z,6.45
2023-12-13T05:00:26.717Z,6.48
2023-12-13T05:03:29.549Z,6.46
2023-12-13T05:06:31.464Z,6.57
2023-12-13T05:09:35.093Z,6.52
2023-12-13T05:12:36.896Z,6.44
2023-12-13T05:15:39.971Z,6.41
2023-12-13T05:18:41.835Z,6.39
2023-12-13T05:21:44.697Z,6.32
2023-12-13T05:24:47.902Z,6.51
2023-12-13T05:27:49.889Z,6.47
2023-12-13T05:30:52.781Z,6.29
2023-12-13T05:33:54.710Z,6.36
2023-12-13T05:36:56.674Z,6.42
2023-12-13T05:39:59.865Z,6.52
2023-12-13T05:43:02.821Z,6.28
2023-12-13T05:46:06.017Z,6.44
2023-12-13T05:49:10.592Z,6.52
2023-12-13T05:52:14.260Z,6.57
2023-12-13T05:55:18.017Z,6.51
2023-12-13T05:58:20.001Z,6.54
2023-12-13T06:01:23.436Z,6.48
2023-12-13T06:04:26.467Z,6.60
2023-12-13T06:07:28.544Z,6.29
2023-12-13T06:10:31.930Z,6.47
2023-12-13T06:13:33.951Z,6.63
2023-12-13T06:16:36.710Z,6.66
2023-12-13T06:19:38.592Z,6.57
2023-12-13T06:22:40.673Z,6.62
2023-12-13T06:25:44.228Z,6.71
2023-12-13T06:28:46.550Z,6.65
2023-12-13T06:31:48.388Z,6.66
2023-12-13T06:34:50.253Z,6.77
2023-12-13T06:37:52.532Z,6.73
2023-12-13T06:40:56.273Z,6.70
2023-12-13T06:43:58.506Z,6.69
2023-12-13T06:47:00.345Z,6.66
2023-12-13T06:50:02.254Z,6.53
2023-12-13T06:53:05.241Z,6.61
2023-12-13T06:56:09.623Z,6.47
2023-12-13T06:59:11.428Z,6.65
2023-12-13T07:02:13.443Z,6.02
2023-12-13T07:05:15.425Z,4.56
2023-12-13T07:08:17.359Z,4.20
2023-12-13T07:11:20.820Z,4.39
2023-12-13T07:14:22.702Z,4.30
2023-12-13T07:17:24.773Z,4.30
2023-12-13T07:20:27.468Z,4.24
2023-12-13T07:23:29.402Z,4.19
2023-12-13T07:26:33.097Z,4.18
2023-12-13T07:29:34.980Z,4.53
2023-12-13T07:32:37.061Z,4.92
2023-12-13T07:35:39.085Z,5.46
2023-12-13T07:38:42.760Z,5.92
2023-12-13T07:41:46.215Z,6.29
2023-12-13T07:44:48.184Z,6.54
2023-12-13T07:48:00.126Z,6.55
2023-12-13T07:51:10.778Z,6.36
2023-12-13T07:54:17.428Z,6.54
2023-12-13T07:57:22.526Z,6.50
2023-12-13T08:00:24.513Z,6.13
2023-12-13T08:03:26.499Z,5.02
2023-12-13T08:06:28.506Z,4.08
2023-12-13T08:09:31.673Z,4.08
2023-12-13T08:12:36.150Z,3.98
2023-12-13T08:15:38.404Z,3.87
2023-12-13T08:18:41.535Z,3.98
2023-12-13T08:21:43.559Z,4.10
2023-12-13T08:24:46.766Z,4.18
2023-12-13T08:27:50.543Z,4.21
2023-12-13T08:30:52.577Z,4.20
2023-12-13T08:33:54.925Z,4.08
2023-12-13T08:36:57.452Z,3.77
2023-12-13T08:39:59.540Z,4.12
2023-12-13T08:43:03.717Z,4.33
2023-12-13T08:46:06.143Z,4.03
2023-12-13T08:49:08.099Z,4.07
2023-12-13T08:52:10.216Z,4.03
2023-12-13T08:55:12.196Z,4.43
2023-12-13T08:58:15.767Z,3.89
2023-12-13T09:01:20.699Z,4.05
2023-12-13T09:04:24.171Z,4.13
2023-12-13T09:07:26.137Z,4.40
2023-12-13T09:10:30.546Z,4.35
2023-12-13T09:13:35.075Z,4.28
2023-12-13T09:16:37.157Z,4.28
2023-12-13T09:19:39.112Z,4.31
2023-12-13T09:22:41.306Z,3.85
2023-12-13T09:25:43.363Z,3.79
2023-12-13T09:28:47.529Z,4.13
2023-12-13T09:31:49.984Z,4.29
2023-12-13T09:34:52.345Z,4.20
2023-12-13T09:37:54.818Z,3.87
2023-12-13T09:40:56.993Z,4.20
2023-12-13T09:44:00.351Z,4.26
2023-12-13T09:47:04.346Z,4.20
2023-12-13T09:50:07.694Z,4.27
2023-12-13T09:53:11.679Z,4.24
2023-12-13T09:56:13.671Z,4.16
2023-12-13T09:59:17.031Z,3.78
2023-12-13T10:02:19.129Z,4.07
2023-12-13T10:05:23.680Z,4.19
2023-12-13T10:08:25.985Z,4.23
2023-12-13T10:11:27.893Z,4.18
2023-12-13T10:14:31.442Z,4.06
2023-12-13T10:17:33.802Z,3.29
2023-12-13T10:20:37.905Z,3.49
2023-12-13T10:23:42.436Z,3.49
2023-12-13T10:26:44.401Z,3.69
2023-12-13T10:29:48.698Z,3.09
2023-12-13T10:32:51.826Z,3.95
2023-12-13T10:35:57.765Z,3.04
2023-12-13T10:39:01.630Z,3.11
2023-12-13T10:42:04.856Z,4.03
2023-12-13T10:45:12.170Z,3.29
2023-12-13T10:48:18.118Z,3.65
2023-12-13T10:51:20.742Z,3.29
2023-12-13T10:54:23.154Z,3.88
2023-12-13T10:57:26.076Z,3.51
2023-12-13T11:00:29.917Z,4.04
2023-12-13T11:03:41.268Z,3.37
2023-12-13T11:06:46.982Z,3.25
2023-12-13T11:09:53.477Z,3.54
2023-12-13T11:12:57.646Z,4.01
2023-12-13T11:16:01.415Z,3.88
2023-12-13T11:19:04.371Z,3.51
2023-12-13T11:22:11.440Z,3.09
2023-12-13T11:25:13.945Z,3.11
2023-12-13T11:28:22.005Z,3.09
2023-12-13T11:31:26.900Z,3.05
2023-12-13T11:34:36.214Z,3.98
2023-12-13T11:37:38.291Z,3.99
2023-12-13T11:40:41.340Z,3.26
2023-12-13T11:43:43.775Z,3.44
2023-12-13T11:46:54.164Z,3.20
2023-12-13T11:49:56.151Z,3.34
2023-12-13T11:52:58.196Z,3.65
2023-12-13T11:56:00.825Z,3.15
2023-12-13T11:59:02.754Z,3.63
2023-12-13T12:02:07.692Z,3.96
2023-12-13T12:05:09.951Z,3.58
2023-12-13T12:08:13.600Z,3.86
2023-12-13T12:11:15.783Z,3.32
2023-12-13T12:14:17.757Z,3.12
2023-12-13T12:17:21.157Z,3.42
2023-12-13T12:20:24.944Z,3.83
2023-12-13T12:23:30.879Z,3.86
2023-12-13T12:26:32.830Z,3.70
2023-12-13T12:29:35.767Z,3.77
2023-12-13T12:32:39.176Z,3.24
2023-12-13T12:35:41.387Z,4.16
2023-12-13T12:38:43.380Z,4.16
2023-12-13T12:41:45.319Z,4.09
2023-12-13T12:44:47.292Z,3.58
2023-12-13T12:47:50.800Z,4.03
2023-12-13T12:50:52.846Z,4.04
2023-12-13T12:53:55.684Z,4.13
2023-12-13T12:56:57.863Z,4.11
2023-12-13T13:00:00.610Z,3.49
2023-12-13T13:03:08.036Z,3.97
2023-12-13T13:06:11.104Z,3.97
2023-12-13T13:09:13.470Z,3.91
2023-12-13T13:12:15.827Z,3.40
2023-12-13T13:15:17.989Z,3.94
2023-12-13T13:18:21.501Z,3.42
2023-12-13T13:21:23.532Z,4.08
2023-12-13T13:24:25.502Z,3.38
2023-12-13T13:27:29.161Z,4.17
2023-12-13T13:30:33.361Z,3.68
2023-12-13T13:33:40.087Z,4.07
2023-12-13T13:36:42.104Z,4.11
2023-12-13T13:39:45.835Z,3.21
2023-12-13T13:42:47.841Z,3.20
2023-12-13T13:45:49.781Z,3.44
2023-12-13T13:48:53.714Z,3.88
2023-12-13T13:51:56.550Z,3.97
2023-12-13T13:54:58.516Z,3.36
2023-12-13T13:58:00.473Z,3.65
2023-12-13T14:01:02.432Z,3.11
2023-12-13T14:04:05.958Z,4.01
2023-12-13T14:07:08.422Z,3.45
2023-12-13T14:10:10.524Z,3.16
2023-12-13T14:13:13.493Z,3.77
2023-12-13T14:16:16.073Z,3.90
2023-12-13T14:19:20.007Z,3.76
2023-12-13T14:22:22.118Z,3.36
2023-12-13T14:25:24.447Z,3.18
2023-12-13T14:28:26.438Z,3.77
2023-12-13T14:31:28.653Z,3.57
2023-12-13T14:34:32.888Z,3.36
2023-12-13T14:37:40.102Z,3.29
2023-12-13T14:40:42.498Z,3.76
2023-12-13T14:43:45.743Z,4.06
2023-12-13T14:46:47.851Z,3.96
2023-12-13T14:49:51.912Z,3.91
2023-12-13T14:52:53.931Z,3.10
2023-12-13T14:55:56.370Z,3.81
2023-12-13T14:58:58.486Z,3.02
2023-12-13T15:02:00.425Z,3.17
2023-12-13T15:05:04.947Z,3.67
2023-12-13T15:08:09.205Z,3.63
2023-12-13T15:11:11.193Z,3.59
2023-12-13T15:14:13.275Z,3.14
2023-12-13T15:17:15.458Z,3.17
2023-12-13T15:20:18.840Z,3.11
2023-12-13T15:23:21.371Z,3.69
2023-12-13T15:26:23.506Z,3.80
2023-12-13T15:29:25.496Z,3.79
2023-12-13T15:32:28.181Z,3.68
2023-12-13T15:35:31.506Z,3.59
2023-12-13T15:38:36.304Z,3.76
2023-12-13T15:41:38.187Z,3.81
2023-12-13T15:44:40.171Z,4.04
2023-12-13T15:47:42.191Z,3.71
2023-12-13T15:50:45.491Z,3.17
2023-12-13T15:53:48.143Z,2.93
2023-12-13T15:56:50.098Z,3.52
2023-12-13T15:59:52.316Z,2.98
2023-12-13T16:02:56.053Z,3.89
2023-12-13T16:05:59.641Z,3.54
2023-12-13T16:09:02.328Z,3.09
2023-12-13T16:12:05.136Z,3.32
2023-12-13T16:15:08.042Z,3.51
2023-12-13T16:18:10.118Z,3.07
2023-12-13T16:21:15.322Z,3.00
2023-12-13T16:24:18.058Z,2.89
2023-12-13T16:27:20.035Z,3.71
2023-12-13T16:30:23.651Z,3.26
2023-12-13T16:33:25.603Z,2.91
2023-12-13T16:36:28.893Z,2.85
2023-12-13T16:39:32.137Z,2.82
2023-12-13T16:42:34.338Z,3.06
2023-12-13T16:45:36.852Z,2.88
2023-12-13T16:48:39.072Z,3.12
2023-12-13T16:51:42.596Z,2.93
2023-12-13T16:54:49.468Z,2.95
2023-12-13T16:57:51.664Z,3.07
2023-12-13T17:00:54.004Z,3.73
2023-12-13T17:03:59.202Z,2.88
2023-12-13T17:07:02.868Z,3.40
2023-12-13T17:10:06.082Z,3.81
2023-12-13T17:13:08.001Z,3.72
2023-12-13T17:16:10.311Z,3.37
2023-12-13T17:19:13.037Z,3.02
2023-12-13T17:22:16.975Z,3.40
2023-12-13T17:25:18.845Z,2.93
2023-12-13T17:28:21.113Z,3.34
2023-12-13T17:31:23.004Z,3.27
2023-12-13T17:34:25.029Z,3.79
2023-12-13T17:37:28.467Z,2.98
2023-12-13T17:40:30.989Z,3.09
2023-12-13T17:43:32.995Z,3.23
2023-12-13T17:46:38.929Z,3.19
2023-12-13T17:49:41.164Z,3.19
2023-12-13T17:52:44.552Z,3.79
2023-12-13T17:55:46.943Z,3.94
2023-12-13T17:58:49.152Z,3.48
2023-12-13T18:01:51.918Z,3.10
2023-12-13T18:04:54.030Z,3.53
2023-12-13T18:07:58.255Z,3.65
2023-12-13T18:11:00.801Z,3.60
2023-12-13T18:14:03.039Z,3.62
2023-12-13T18:17:05.971Z,3.13
2023-12-13T18:20:09.888Z,2.95
2023-12-13T18:23:14.680Z,3.54
2023-12-13T18:26:17.009Z,3.84
2023-12-13T18:29:19.546Z,3.84
2023-12-13T18:32:22.304Z,3.20
2023-12-13T18:35:24.378Z,3.23
2023-12-13T18:38:31.533Z,3.52
2023-12-13T18:41:34.197Z,3.71
2023-12-13T18:44:37.253Z,3.09
2023-12-13T18:47:39.944Z,3.23
2023-12-13T18:50:42.339Z,3.93
2023-12-13T18:53:46.465Z,3.45
2023-12-13T18:56:48.997Z,3.32
2023-12-13T18:59:51.771Z,3.85
2023-12-13T19:02:54.441Z,4.05
2023-12-13T19:05:57.215Z,3.92
2023-12-13T19:09:00.879Z,3.88
2023-12-13T19:12:03.311Z,3.89
2023-12-13T19:15:10.065Z,4.08
2023-12-13T19:18:13.185Z,3.79
2023-12-13T19:21:16.196Z,4.04
2023-12-13T19:24:21.457Z,4.04
2023-12-13T19:27:24.771Z,4.04
2023-12-13T19:30:29.046Z,4.14
2023-12-13T19:33:32.191Z,4.11
2023-12-13T19:36:35.891Z,4.05
2023-12-13T19:39:40.880Z,3.96
2023-12-13T19:42:45.562Z,4.14
2023-12-13T19:45:48.965Z,4.19
2023-12-13T19:48:52.358Z,4.25
2023-12-13T19:51:55.627Z,4.25
2023-12-13T19:55:00.619Z,4.24
2023-12-13T19:58:04.780Z,4.20
2023-12-13T20:01:08.381Z,4.24
2023-12-13T20:04:12.362Z,4.21
2023-12-13T20:07:15.700Z,4.15
2023-12-13T20:10:21.443Z,4.18
2023-12-13T20:13:25.058Z,4.01
2023-12-13T20:16:29.661Z,4.14
2023-12-13T20:19:33.970Z,4.18
2023-12-13T20:22:37.516Z,4.11
2023-12-13T20:25:42.832Z,4.09
2023-12-13T20:28:47.462Z,4.21
2023-12-13T20:31:52.735Z,4.15
2023-12-13T20:34:56.878Z,3.98
2023-12-13T20:38:01.893Z,3.78
2023-12-13T20:41:10.364Z,3.86
2023-12-13T20:44:13.804Z,3.91
2023-12-13T20:47:17.199Z,3.90
2023-12-13T20:50:23.662Z,3.94
2023-12-13T20:53:27.801Z,3.69
2023-12-13T20:56:32.489Z,3.86
2023-12-13T20:59:35.401Z,3.89
2023-12-13T21:02:37.311Z,4.11
2023-12-13T21:05:39.193Z,4.71
2023-12-13T21:08:41.513Z,5.17
2023-12-13T21:11:45.115Z,5.14
2023-12-13T21:14:47.319Z,5.85
2023-12-13T21:17:49.384Z,5.98
2023-12-13T21:20:51.371Z,6.03
2023-12-13T21:24:09.648Z,6.02
2023-12-13T21:27:19.781Z,6.02
2023-12-13T21:30:22.317Z,6.10
2023-12-13T21:33:24.340Z,6.09
2023-12-13T21:36:26.278Z,6.11
2023-12-13T21:39:28.322Z,6.09
2023-12-13T21:42:31.689Z,6.09
2023-12-13T21:45:33.586Z,6.14
2023-12-13T21:48:35.619Z,5.98
2023-12-13T21:51:37.711Z,5.71
2023-12-13T21:54:40.257Z,5.46
2023-12-13T21:57:43.487Z,5.47
2023-12-13T22:00:46.421Z,5.44
2023-12-13T22:03:52.993Z,5.39
2023-12-13T22:06:54.924Z,4.71
2023-12-13T22:09:57.085Z,4.39
2023-12-13T22:13:00.318Z,4.37
2023-12-13T22:16:03.314Z,4.67
2023-12-13T22:19:21.911Z,4.22
2023-12-13T22:22:23.808Z,4.71
2023-12-13T22:25:26.272Z,4.16
2023-12-13T22:28:29.626Z,4.86
2023-12-13T22:31:31.569Z,4.44
2023-12-13T22:34:33.820Z,4.82
2023-12-13T22:37:36.219Z,4.95
2023-12-13T22:40:38.147Z,5.00
2023-12-13T22:43:42.075Z,5.22
2023-12-13T22:46:44.577Z,5.25
2023-12-13T22:49:46.561Z,5.48
2023-12-13T22:52:49.064Z,5.70
2023-12-13T22:55:51.282Z,5.82
2023-12-13T22:58:55.516Z,5.84
2023-12-13T23:01:59.547Z,6.10
2023-12-13T23:05:03.452Z,6.16
2023-12-13T23:08:05.478Z,6.23
2023-12-13T23:11:07.431Z,6.29
2023-12-13T23:14:11.001Z,6.31
2023-12-13T23:17:13.894Z,6.21
2023-12-13T23:20:16.760Z,6.29
2023-12-13T23:23:19.149Z,6.38
2023-12-13T23:26:21.122Z,6.31
2023-12-13T23:29:24.482Z,6.02
2023-12-13T23:32:26.607Z,5.62
2023-12-13T23:35:28.513Z,5.64
2023-12-13T23:38:30.497Z,6.04
2023-12-13T23:41:32.530Z,6.45
2023-12-13T23:44:36.325Z,6.68
2023-12-13T23:47:38.143Z,6.91
2023-12-13T23:50:40.181Z,6.89
2023-12-13T23:53:43.052Z,6.84
2023-12-13T23:56:45.086Z,7.04
2023-12-13T23:59:49.292Z,7.14
